Time;durP1;ratioP1;P1;durP2;ratioP2;P2;SDS_P1;SDS_P2;PMS_P1;PMS_P2;Temp;Humidity;BMP_temperature;BMP_pressure;BME280_temperature;BME280_humidity;BME280_pressure;Samples;Min_cycle;Max_cycle;Signal;HPM_P1;HPM_P2
2024/01/28 00:00:21;;;;;;;33.35;15.20;;;6.60;99.90;;;;;;7379629;19;20006;-72
2024/01/28 00:02:51;;;;;;;56.60;28.75;;;6.60;99.90;;;;;;7380048;19;20002;-73
2024/01/28 00:05:22;;;;;;;72.75;31.60;;;6.60;99.90;;;;;;7379666;19;20066;-73
2024/01/28 00:07:51;;;;;;;75.55;31.15;;;6.60;99.90;;;;;;7380560;19;20010;-73
2024/01/28 00:10:19;;;;;;;82.45;32.60;;;6.60;99.90;;;;;;7403518;19;20019;-73
2024/01/28 00:12:50;;;;;;;59.67;24.58;;;6.60;99.90;;;;;;7379629;19;20074;-72
2024/01/28 00:15:19;;;;;;;;;;;6.60;99.90;;;;;;7380117;19;20002;-72
2024/01/28 00:17:50;;;;;;;64.35;25.50;;;6.60;99.90;;;;;;7379957;19;19941;-72
2024/01/28 00:20:21;;;;;;;39.90;18.10;;;6.50;99.90;;;;;;7378997;19;20007;-73
2024/01/28 00:22:50;;;;;;;33.92;14.02;;;6.50;99.90;;;;;;7378798;19;20024;-73
2024/01/28 00:25:19;;;;;;;34.33;12.60;;;6.50;99.90;;;;;;7401696;19;20015;-73
2024/01/28 00:27:52;;;;;;;29.02;11.23;;;6.50;99.90;;;;;;7381812;19;20383;-73
2024/01/28 00:30:21;;;;;;;24.23;11.55;;;6.50;99.90;;;;;;7379056;19;20062;-72
2024/01/28 00:32:49;;;;;;;19.52;9.35;;;6.40;99.90;;;;;;7379492;19;20070;-72
2024/01/28 00:35:18;;;;;;;19.17;8.60;;;6.50;99.90;;;;;;7377990;19;20031;-72
2024/01/28 00:37:47;;;;;;;22.17;10.32;;;6.40;99.90;;;;;;7379051;19;20136;-72
2024/01/28 00:40:16;;;;;;;31.13;13.80;;;6.40;99.90;;;;;;7401436;19;20086;-72
2024/01/28 00:42:44;;;;;;;48.63;17.45;;;6.40;99.90;;;;;;7376592;19;20054;-73
2024/01/28 00:45:16;;;;;;;43.92;19.05;;;6.40;99.90;;;;;;7378643;19;20390;-72
2024/01/28 00:47:44;;;;;;;;;;;6.40;99.90;;;;;;7382998;19;20013;-71
2024/01/28 00:50:13;;;;;;;52.63;21.20;;;6.40;99.90;;;;;;7387226;19;19917;-73
2024/01/28 00:52:43;;;;;;;74.35;32.05;;;6.40;99.90;;;;;;7388100;19;20007;-72
2024/01/28 00:55:12;;;;;;;45.53;19.98;;;6.40;99.90;;;;;;7409722;19;20023;-72
2024/01/28 00:57:41;;;;;;;47.90;21.75;;;6.40;99.90;;;;;;7390217;19;20010;-72
2024/01/28 01:00:12;;;;;;;40.50;16.65;;;6.40;99.90;;;;;;7390448;19;20014;-73
2024/01/28 01:02:43;;;;;;;29.30;12.80;;;6.30;99.90;;;;;;7391952;19;20011;-73
2024/01/28 01:05:12;;;;;;;43.05;15.85;;;6.30;99.90;;;;;;7379838;19;20031;-73
2024/01/28 01:07:41;;;;;;;32.53;13.30;;;6.30;99.90;;;;;;7376795;19;20010;-73
2024/01/28 01:10:11;;;;;;;29.40;12.82;;;6.40;99.90;;;;;;7400920;19;20287;-73
2024/01/28 01:12:40;;;;;;;27.55;11.25;;;6.30;99.90;;;;;;7377829;19;20017;-74
2024/01/28 01:15:10;;;;;;;26.58;12.23;;;6.40;99.90;;;;;;7377758;19;20378;-72
2024/01/28 01:17:38;;;;;;;22.90;10.95;;;6.30;99.90;;;;;;7378325;19;19999;-73
2024/01/28 01:20:11;;;;;;;17.73;8.48;;;6.30;99.90;;;;;;7377703;19;20011;-72
2024/01/28 01:22:40;;;;;;;17.38;8.55;;;6.30;99.90;;;;;;7377058;19;20015;-73
2024/01/28 01:25:10;;;;;;;20.58;10.13;;;6.30;99.90;;;;;;7399215;19;20066;-73
2024/01/28 01:27:38;;;;;;;30.48;11.48;;;6.30;99.90;;;;;;7376557;19;20019;-73
2024/01/28 01:30:08;;;;;;;38.30;13.60;;;6.30;99.90;;;;;;7377319;19;20233;-72
2024/01/28 01:32:40;;;;;;;37.28;10.98;;;6.30;99.90;;;;;;7377925;19;20003;-73
2024/01/28 01:35:14;;;;;;;28.15;10.15;;;6.30;99.90;;;;;;7378522;19;20003;-73
2024/01/28 01:37:42;;;;;;;23.85;11.25;;;6.30;99.90;;;;;;7377790;19;20032;-73
2024/01/28 01:40:14;;;;;;;34.63;10.88;;;6.30;99.90;;;;;;7398973;19;20062;-73
2024/01/28 01:42:43;;;;;;;;;;;6.30;99.90;;;;;;7375638;19;20006;-73
2024/01/28 01:45:12;;;;;;;17.95;7.68;;;6.30;99.90;;;;;;7380296;19;19943;-72
2024/01/28 01:47:42;;;;;;;15.98;8.57;;;6.30;99.90;;;;;;7382499;19;20019;-73
2024/01/28 01:50:14;;;;;;;22.05;8.55;;;6.30;99.90;;;;;;7384592;19;20007;-73
2024/01/28 01:52:45;;;;;;;24.52;9.35;;;6.20;99.90;;;;;;7386924;19;20039;-73
2024/01/28 01:55:17;;;;;;;21.35;9.90;;;6.20;99.90;;;;;;7405711;19;20020;-73
2024/01/28 01:57:47;;;;;;;42.55;15.18;;;6.20;99.90;;;;;;7383527;19;20063;-74
2024/01/28 02:00:17;;;;;;;38.55;15.68;;;6.20;99.90;;;;;;7383493;19;20493;-73
2024/01/28 02:02:47;;;;;;;33.72;16.55;;;6.20;99.90;;;;;;7383569;19;20006;-73
2024/01/28 02:05:18;;;;;;;39.22;15.60;;;6.20;99.90;;;;;;7383839;19;20255;-73
2024/01/28 02:07:47;;;;;;;;;;;6.20;99.90;;;;;;7385403;19;20007;-73
2024/01/28 02:10:17;;;;;;;37.38;14.35;;;6.30;99.90;;;;;;7408776;19;19911;-72
2024/01/28 02:12:49;;;;;;;31.45;14.05;;;6.20;99.90;;;;;;7383037;19;20003;-73
2024/01/28 02:15:18;;;;;;;33.15;14.25;;;6.20;99.90;;;;;;7383309;19;20006;-73
2024/01/28 02:17:48;;;;;;;35.92;14.40;;;6.20;99.90;;;;;;7383499;19;20111;-72
2024/01/28 02:20:20;;;;;;;34.83;15.80;;;6.20;99.90;;;;;;7384067;19;20105;-73
2024/01/28 02:22:49;;;;;;;34.38;15.20;;;6.20;99.90;;;;;;7381059;19;20014;-72
2024/01/28 02:25:20;;;;;;;42.38;16.27;;;6.10;99.90;;;;;;7404521;19;20013;-73
2024/01/28 02:27:49;;;;;;;;;;;6.10;99.90;;;;;;7383909;19;20003;-73
2024/01/28 02:30:18;;;;;;;27.73;12.05;;;6.20;99.90;;;;;;7383287;19;20003;-73
2024/01/28 02:32:50;;;;;;;27.58;12.18;;;6.10;99.90;;;;;;7383562;19;20028;-73
2024/01/28 02:35:20;;;;;;;24.83;12.57;;;6.10;99.90;;;;;;7383476;19;20013;-73
2024/01/28 02:37:49;;;;;;;32.25;12.50;;;6.10;99.90;;;;;;7382200;19;20014;-73
2024/01/28 02:40:20;;;;;;;37.03;12.77;;;6.10;99.90;;;;;;7404801;19;20010;-73
2024/01/28 02:42:49;;;;;;;28.73;12.13;;;6.10;99.90;;;;;;7380880;19;20066;-73
2024/01/28 02:45:18;;;;;;;35.85;11.88;;;6.10;99.90;;;;;;7381784;19;20329;-73
2024/01/28 02:47:46;;;;;;;28.55;11.18;;;6.10;99.90;;;;;;7382383;19;20003;-73
2024/01/28 02:50:15;;;;;;;24.00;10.70;;;6.10;99.90;;;;;;7382286;19;20078;-73
2024/01/28 02:52:46;;;;;;;22.30;11.00;;;6.10;99.90;;;;;;7382020;19;20014;-73
2024/01/28 02:55:15;;;;;;;24.00;10.77;;;6.10;99.90;;;;;;7403643;19;20017;-73
2024/01/28 02:57:48;;;;;;;24.38;9.90;;;6.10;99.90;;;;;;7379910;19;20027;-73
2024/01/28 03:00:21;;;;;;;24.27;11.30;;;6.10;99.90;;;;;;7383489;19;20010;-73
2024/01/28 03:02:49;;;;;;;21.67;9.52;;;6.00;99.90;;;;;;7381958;19;20027;-74
2024/01/28 03:05:18;;;;;;;28.85;9.95;;;6.00;99.90;;;;;;7381511;19;20002;-73
2024/01/28 03:07:49;;;;;;;21.85;9.68;;;6.00;99.90;;;;;;7381635;19;20011;-72
2024/01/28 03:10:20;;;;;;;19.27;10.35;;;6.00;99.90;;;;;;7402929;19;20055;-73
2024/01/28 03:12:52;;;;;;;20.20;9.85;;;6.00;99.90;;;;;;7381173;19;20014;-72
2024/01/28 03:15:21;;;;;;;27.27;10.60;;;6.00;99.90;;;;;;7380797;19;20003;-73
2024/01/28 03:17:50;;;;;;;23.50;10.30;;;6.00;99.90;;;;;;7381693;19;20377;-73
2024/01/28 03:20:21;;;;;;;29.20;11.35;;;6.00;99.90;;;;;;7381696;19;20585;-74
2024/01/28 03:22:49;;;;;;;28.10;11.23;;;6.00;99.90;;;;;;7380393;19;20373;-73
2024/01/28 03:25:18;;;;;;;24.85;10.60;;;6.00;99.90;;;;;;7403059;19;20075;-73
2024/01/28 03:27:47;;;;;;;20.42;9.82;;;6.00;99.90;;;;;;7380707;19;20423;-72
2024/01/28 03:30:19;;;;;;;34.35;10.82;;;6.00;99.90;;;;;;7381560;19;20002;-73
2024/01/28 03:32:47;;;;;;;24.73;9.25;;;6.00;99.90;;;;;;7381680;19;20003;-73
2024/01/28 03:35:19;;;;;;;18.60;9.23;;;6.00;99.90;;;;;;7384061;19;20010;-72
2024/01/28 03:37:48;;;;;;;26.52;9.38;;;6.00;99.90;;;;;;7385020;19;20022;-73
2024/01/28 03:40:19;;;;;;;21.48;8.90;;;6.00;99.90;;;;;;7407235;19;20006;-73
2024/01/28 03:42:48;;;;;;;;;;;6.00;99.90;;;;;;7391612;19;20374;-73
2024/01/28 03:45:19;;;;;;;14.32;7.30;;;6.00;99.90;;;;;;7393074;19;19923;-73
2024/01/28 03:47:47;;;;;;;;;;;6.00;99.90;;;;;;7393059;19;20014;-73
2024/01/28 03:50:19;;;;;;;14.95;6.15;;;6.00;99.90;;;;;;7393034;19;19924;-72
2024/01/28 03:52:48;;;;;;;17.30;7.10;;;6.00;99.90;;;;;;7395056;19;20074;-73
2024/01/28 03:55:17;;;;;;;16.95;7.45;;;6.10;99.90;;;;;;7403183;19;20015;-73
2024/01/28 03:57:46;;;;;;;21.25;7.78;;;6.10;99.90;;;;;;7380157;19;20426;-72
2024/01/28 04:00:18;;;;;;;12.85;6.30;;;6.10;99.90;;;;;;7380514;19;20006;-73
2024/01/28 04:02:49;;;;;;;27.17;6.88;;;6.20;99.90;;;;;;7381110;19;20002;-73
2024/01/28 04:05:18;;;;;;;;;;;6.20;99.90;;;;;;7381091;19;20023;-73
2024/01/28 04:07:46;;;;;;;13.02;5.55;;;6.30;99.90;;;;;;7401847;19;19911;-73
2024/01/28 04:10:17;;;;;;;14.00;5.93;;;6.30;99.90;;;;;;7397130;19;20019;-73
2024/01/28 04:12:47;;;;;;;11.88;5.82;;;6.30;99.90;;;;;;7379190;19;20003;-74
2024/01/28 04:15:16;;;;;;;19.65;5.38;;;6.30;99.90;;;;;;7380053;19;20094;-73
2024/01/28 04:17:45;;;;;;;24.73;6.03;;;6.40;99.90;;;;;;7380185;19;20069;-72
2024/01/28 04:20:19;;;;;;;18.02;6.05;;;6.40;99.90;;;;;;7379644;19;20098;-72
2024/01/28 04:22:48;;;;;;;13.93;5.68;;;6.40;99.90;;;;;;7395167;19;20019;-72
2024/01/28 04:25:19;;;;;;;21.08;6.45;;;6.40;99.90;;;;;;7402389;19;20070;-73
2024/01/28 04:27:47;;;;;;;17.60;5.72;;;6.30;99.90;;;;;;7378957;19;20010;-73
2024/01/28 04:30:16;;;;;;;19.77;6.13;;;6.30;99.90;;;;;;7379644;19;20010;-73
2024/01/28 04:32:45;;;;;;;14.82;5.90;;;6.30;99.90;;;;;;7377899;19;20011;-73
2024/01/28 04:35:17;;;;;;;21.40;6.28;;;6.30;99.90;;;;;;7380712;19;20489;-73
2024/01/28 04:37:45;;;;;;;13.13;6.00;;;6.30;99.90;;;;;;7400549;19;20027;-74
2024/01/28 04:40:15;;;;;;;17.80;5.95;;;6.40;99.90;;;;;;7378414;19;20103;-73
2024/01/28 04:42:43;;;;;;;17.75;6.72;;;6.40;99.90;;;;;;7379957;19;20003;-73
2024/01/28 04:45:13;;;;;;;22.10;7.15;;;6.40;99.90;;;;;;7378814;19;20010;-73
2024/01/28 04:47:42;;;;;;;11.65;5.07;;;6.40;99.90;;;;;;7378476;19;19999;-72
2024/01/28 04:50:12;;;;;;;19.38;6.57;;;6.40;99.90;;;;;;7379187;19;20009;-73
2024/01/28 04:52:43;;;;;;;21.93;6.13;;;6.40;99.90;;;;;;7399933;19;20286;-73
2024/01/28 04:55:12;;;;;;;19.30;7.10;;;6.40;99.90;;;;;;7378351;19;20261;-73
2024/01/28 04:57:41;;;;;;;14.45;5.72;;;6.40;99.90;;;;;;7378066;19;20279;-73
2024/01/28 05:00:14;;;;;;;15.90;6.82;;;6.40;99.90;;;;;;7379999;19;20007;-73
2024/01/28 05:02:43;;;;;;;16.15;6.28;;;6.40;99.90;;;;;;7378256;19;20002;-74
2024/01/28 05:05:12;;;;;;;11.52;6.22;;;6.30;99.90;;;;;;7377385;19;20083;-74
2024/01/28 05:07:43;;;;;;;9.40;5.82;;;6.30;99.90;;;;;;7399836;19;20011;-74
2024/01/28 05:10:12;;;;;;;11.98;5.90;;;6.30;99.90;;;;;;7377582;19;20066;-73
2024/01/28 05:12:41;;;;;;;16.05;5.25;;;6.30;99.90;;;;;;7377394;19;20003;-73
2024/01/28 05:15:16;;;;;;;12.43;5.10;;;6.30;99.90;;;;;;7378029;19;20027;-72
2024/01/28 05:17:45;;;;;;;11.82;5.07;;;6.30;99.90;;;;;;7380803;19;20007;-74
2024/01/28 05:20:14;;;;;;;12.70;5.40;;;6.30;99.90;;;;;;7379506;19;20078;-73
2024/01/28 05:22:48;;;;;;;16.80;5.35;;;6.30;99.90;;;;;;7413069;19;20023;-73
2024/01/28 05:25:17;;;;;;;10.80;5.03;;;6.20;99.90;;;;;;7391202;19;20015;-73
2024/01/28 05:27:49;;;;;;;12.73;5.00;;;6.20;99.90;;;;;;7391729;19;20366;-73
2024/01/28 05:30:17;;;;;;;11.70;5.45;;;6.20;99.90;;;;;;7392017;19;20369;-73
2024/01/28 05:32:46;;;;;;;11.02;5.60;;;6.20;99.90;;;;;;7392618;19;20325;-72
2024/01/28 05:35:15;;;;;;;11.23;5.65;;;6.10;99.90;;;;;;7391763;19;20023;-73
2024/01/28 05:37:46;;;;;;;10.82;5.45;;;6.10;99.90;;;;;;7413195;19;20062;-72
2024/01/28 05:40:15;;;;;;;14.93;5.82;;;6.10;99.90;;;;;;7391108;19;20010;-73
2024/01/28 05:42:43;;;;;;;16.77;6.63;;;6.10;99.90;;;;;;7390975;19;20020;-73
2024/01/28 05:45:12;;;;;;;9.57;5.85;;;6.10;99.90;;;;;;7391351;19;20019;-73
2024/01/28 05:47:41;;;;;;;19.08;7.20;;;6.10;99.90;;;;;;7391167;19;20386;-73
2024/01/28 05:50:11;;;;;;;15.55;6.75;;;6.00;99.90;;;;;;7392338;19;20014;-73
2024/01/28 05:52:39;;;;;;;17.63;6.70;;;6.00;99.90;;;;;;7412832;19;20031;-72
2024/01/28 05:55:11;;;;;;;16.10;7.15;;;6.00;99.90;;;;;;7390200;19;20398;-73
2024/01/28 05:57:39;;;;;;;;;;;6.00;99.90;;;;;;7391404;19;20043;-73
2024/01/28 06:00:11;;;;;;;15.93;6.32;;;6.00;99.90;;;;;;7391019;19;19935;-72
2024/01/28 06:02:40;;;;;;;18.20;6.90;;;6.00;99.90;;;;;;7391352;19;20031;-73
2024/01/28 06:05:09;;;;;;;17.30;7.20;;;6.00;99.90;;;;;;7390689;19;20010;-72
2024/01/28 06:07:38;;;;;;;17.00;7.00;;;6.00;99.90;;;;;;7414840;19;20024;-72
2024/01/28 06:10:08;;;;;;;18.98;6.35;;;6.00;99.90;;;;;;7390184;19;20404;-73
2024/01/28 06:12:39;;;;;;;11.40;6.00;;;6.00;99.90;;;;;;7390488;19;20066;-73
2024/01/28 06:15:09;;;;;;;19.77;7.85;;;6.00;99.90;;;;;;7389671;19;20084;-73
2024/01/28 06:17:38;;;;;;;22.90;7.35;;;6.00;99.90;;;;;;7390427;19;20014;-72
2024/01/28 06:20:11;;;;;;;11.18;5.35;;;6.00;99.90;;;;;;7390895;19;20079;-73
2024/01/28 06:22:40;;;;;;;17.58;5.97;;;6.00;99.90;;;;;;7412259;19;20018;-73
2024/01/28 06:25:10;;;;;;;15.25;6.30;;;5.90;99.90;;;;;;7396926;19;20024;-73
2024/01/28 06:27:41;;;;;;;21.50;6.75;;;5.90;99.90;;;;;;7400161;19;20065;-72
2024/01/28 06:30:11;;;;;;;14.68;6.60;;;5.90;99.90;;;;;;7402598;19;20006;-73
2024/01/28 06:32:40;;;;;;;20.10;7.20;;;5.90;99.90;;;;;;7395797;19;20402;-73
2024/01/28 06:35:10;;;;;;;19.50;6.72;;;6.00;99.90;;;;;;7394620;19;20019;-73
2024/01/28 06:37:39;;;;;;;17.02;6.72;;;6.00;99.90;;;;;;7421358;19;20354;-73
2024/01/28 06:40:09;;;;;;;15.95;5.68;;;6.00;99.90;;;;;;7390369;19;20366;-73
2024/01/28 06:42:41;;;;;;;13.83;6.03;;;6.10;99.90;;;;;;7383799;19;20114;-73
2024/01/28 06:45:10;;;;;;;11.50;6.13;;;6.00;99.90;;;;;;7381834;19;20287;-73
2024/01/28 06:47:39;;;;;;;16.75;6.40;;;6.10;99.90;;;;;;7383065;19;20007;-73
2024/01/28 06:50:09;;;;;;;11.25;5.40;;;6.10;99.90;;;;;;7384736;19;20391;-73
2024/01/28 06:52:38;;;;;;;14.40;6.20;;;6.10;99.90;;;;;;7404879;19;20011;-73
2024/01/28 06:55:09;;;;;;;14.52;6.40;;;6.10;99.90;;;;;;7382495;19;20078;-73
2024/01/28 06:57:41;;;;;;;14.48;6.25;;;6.10;99.90;;;;;;7383217;19;20006;-72
2024/01/28 07:00:13;;;;;;;14.32;6.63;;;6.10;99.90;;;;;;7383412;19;20078;-72
2024/01/28 07:02:42;;;;;;;21.40;6.32;;;6.10;99.90;;;;;;7382573;19;20011;-73
2024/01/28 07:05:11;;;;;;;14.18;6.75;;;6.10;99.90;;;;;;7382808;19;20011;-72
2024/01/28 07:07:41;;;;;;;15.23;6.53;;;6.10;99.90;;;;;;7401544;19;20007;-72
2024/01/28 07:10:10;;;;;;;12.98;6.57;;;6.10;99.90;;;;;;7381630;19;20006;-72
2024/01/28 07:12:42;;;;;;;18.02;6.30;;;6.10;99.90;;;;;;7382406;19;20035;-71
2024/01/28 07:15:11;;;;;;;20.85;6.90;;;6.10;99.90;;;;;;7384448;19;20089;-72
2024/01/28 07:17:40;;;;;;;20.88;7.10;;;6.10;99.90;;;;;;7382296;19;20066;-72
2024/01/28 07:20:10;;;;;;;16.38;6.95;;;6.10;99.90;;;;;;7381546;19;20011;-73
2024/01/28 07:22:39;;;;;;;28.20;7.03;;;6.00;99.90;;;;;;7406172;19;20021;-73
2024/01/28 07:25:08;;;;;;;21.63;6.60;;;6.10;99.90;;;;;;7380667;19;20019;-72
2024/01/28 07:27:37;;;;;;;12.43;6.03;;;6.10;99.90;;;;;;7381998;19;20002;-73
2024/01/28 07:30:09;;;;;;;18.65;6.63;;;6.10;99.90;;;;;;7381697;19;20020;-73
2024/01/28 07:32:38;;;;;;;13.00;6.43;;;6.10;99.90;;;;;;7383486;19;20059;-72
2024/01/28 07:35:07;;;;;;;15.80;6.97;;;6.10;99.90;;;;;;7380750;19;20399;-72
2024/01/28 07:37:38;;;;;;;13.68;5.95;;;6.10;99.90;;;;;;7406885;19;20019;-73
2024/01/28 07:40:08;;;;;;;10.32;5.63;;;6.10;99.90;;;;;;7380637;19;20393;-72
2024/01/28 07:42:37;;;;;;;17.80;6.25;;;6.10;99.90;;;;;;7381373;19;20051;-73
2024/01/28 07:45:09;;;;;;;14.75;6.68;;;6.10;99.90;;;;;;7377468;19;20029;-72
2024/01/28 07:47:39;;;;;;;13.48;6.75;;;6.10;99.90;;;;;;7381162;19;19999;-73
2024/01/28 07:50:10;;;;;;;15.98;6.35;;;6.10;99.90;;;;;;7383760;19;20028;-72
2024/01/28 07:52:39;;;;;;;24.45;7.65;;;6.00;99.90;;;;;;7402809;19;20007;-72
2024/01/28 07:55:08;;;;;;;17.38;7.18;;;6.00;99.90;;;;;;7381561;19;20082;-72
2024/01/28 07:57:37;;;;;;;17.70;7.22;;;6.10;99.90;;;;;;7379895;19;20023;-73
2024/01/28 08:00:09;;;;;;;19.63;6.97;;;6.10;99.90;;;;;;7380458;19;20606;-73
2024/01/28 08:02:38;;;;;;;17.65;6.93;;;6.10;99.90;;;;;;7380777;19;20028;-72
2024/01/28 08:05:09;;;;;;;11.23;6.10;;;6.10;99.90;;;;;;7379444;19;20367;-72
2024/01/28 08:07:37;;;;;;;11.32;5.60;;;6.10;99.90;;;;;;7406739;19;20014;-72
2024/01/28 08:10:07;;;;;;;18.15;7.45;;;6.10;99.90;;;;;;7379686;19;20360;-73
2024/01/28 08:12:35;;;;;;;17.15;7.13;;;6.10;99.90;;;;;;7380270;19;20013;-73
2024/01/28 08:15:07;;;;;;;15.45;6.65;;;6.10;99.90;;;;;;7380297;19;20092;-73
2024/01/28 08:17:38;;;;;;;;;;;6.20;99.90;;;;;;7380986;19;20392;-72
2024/01/28 08:20:08;;;;;;;20.63;7.18;;;6.20;99.90;;;;;;7383564;19;19919;-73
2024/01/28 08:22:37;;;;;;;16.63;7.20;;;6.20;99.90;;;;;;7402501;19;20027;-74
2024/01/28 08:25:06;;;;;;;19.83;6.57;;;6.20;99.90;;;;;;7377030;19;20006;-73
2024/01/28 08:27:35;;;;;;;15.70;7.22;;;6.20;99.90;;;;;;7379420;19;20058;-73
2024/01/28 08:30:03;;;;;;;15.20;7.82;;;6.30;99.90;;;;;;7379614;19;20032;-73
2024/01/28 08:32:32;;;;;;;21.63;8.23;;;6.30;99.90;;;;;;7379723;19;20374;-72
2024/01/28 08:35:03;;;;;;;18.15;8.07;;;6.30;99.90;;;;;;7401080;19;20074;-73
2024/01/28 08:37:32;;;;;;;;;;;6.40;99.90;;;;;;7383277;19;20011;-73
2024/01/28 08:40:00;;;;;;;14.63;7.75;;;6.40;99.90;;;;;;7379756;19;19903;-73
2024/01/28 08:42:29;;;;;;;28.60;8.68;;;6.40;99.90;;;;;;7379253;19;20227;-73
2024/01/28 08:44:58;;;;;;;14.90;7.70;;;6.50;99.90;;;;;;7378826;19;20348;-73
2024/01/28 08:47:29;;;;;;;22.02;7.82;;;6.50;99.90;;;;;;7380531;19;20031;-74
2024/01/28 08:49:58;;;;;;;20.52;8.85;;;6.50;99.90;;;;;;7401888;19;20027;-73
2024/01/28 08:52:29;;;;;;;15.00;7.05;;;6.50;99.90;;;;;;7377855;19;20232;-74
2024/01/28 08:54:58;;;;;;;18.23;8.05;;;6.50;99.90;;;;;;7377413;19;20434;-72
2024/01/28 08:57:26;;;;;;;17.80;9.55;;;6.60;99.90;;;;;;7380369;19;20007;-73
2024/01/28 08:59:55;;;;;;;48.80;19.80;;;6.60;99.90;;;;;;7379737;19;20081;-73
2024/01/28 09:02:26;;;;;;;56.33;23.58;;;6.70;99.90;;;;;;7380121;19;20098;-73
2024/01/28 09:04:55;;;;;;;47.50;21.52;;;6.70;99.90;;;;;;7399512;19;20036;-72
2024/01/28 09:07:24;;;;;;;39.17;17.83;;;6.70;99.90;;;;;;7378569;19;20022;-73
2024/01/28 09:09:55;;;;;;;27.25;13.32;;;6.70;99.90;;;;;;7377871;19;20062;-73
2024/01/28 09:12:24;;;;;;;26.23;13.38;;;6.80;99.90;;;;;;7378676;19;20015;-74
2024/01/28 09:14:52;;;;;;;30.70;13.48;;;6.80;99.90;;;;;;7381088;19;20006;-73
2024/01/28 09:17:21;;;;;;;23.48;11.48;;;6.80;99.90;;;;;;7388785;19;20006;-73
2024/01/28 09:19:50;;;;;;;29.55;12.68;;;6.90;99.90;;;;;;7410534;19;20240;-73
2024/01/28 09:22:18;;;;;;;31.95;11.20;;;6.90;99.90;;;;;;7388556;19;20016;-73
2024/01/28 09:24:47;;;;;;;27.17;10.93;;;7.00;99.90;;;;;;7388394;19;20010;-73
2024/01/28 09:27:22;;;;;;;21.02;9.65;;;7.10;99.90;;;;;;7389574;19;20007;-74
2024/01/28 09:29:51;;;;;;;23.45;9.23;;;7.10;99.90;;;;;;7383980;19;20011;-73
2024/01/28 09:32:23;;;;;;;16.63;8.07;;;7.20;99.90;;;;;;7383575;19;20015;-73
2024/01/28 09:34:51;;;;;;;18.50;9.82;;;7.20;99.90;;;;;;7399580;19;20017;-73
2024/01/28 09:37:22;;;;;;;19.05;9.02;;;7.20;99.90;;;;;;7377387;19;20070;-73
2024/01/28 09:39:51;;;;;;;16.95;8.82;;;7.30;99.90;;;;;;7378200;19;20082;-73
2024/01/28 09:42:25;;;;;;;22.55;8.95;;;7.30;99.90;;;;;;7380026;19;20020;-73
2024/01/28 09:44:56;;;;;;;25.08;10.10;;;7.30;99.90;;;;;;7378216;19;20076;-75
2024/01/28 09:47:25;;;;;;;35.05;9.43;;;7.30;99.90;;;;;;7377953;19;20003;-72
2024/01/28 09:49:54;;;;;;;23.10;10.88;;;7.40;99.90;;;;;;7401162;19;20537;-72
2024/01/28 09:52:23;;;;;;;22.45;10.00;;;7.40;99.90;;;;;;7379236;19;20010;-74
2024/01/28 09:54:52;;;;;;;19.42;8.82;;;7.40;99.90;;;;;;7384276;19;20348;-73
2024/01/28 09:57:25;;;;;;;22.15;10.85;;;7.50;99.90;;;;;;7379220;19;20094;-73
2024/01/28 09:59:54;;;;;;;21.05;10.90;;;7.50;99.90;;;;;;7378344;19;20009;-74
2024/01/28 10:02:24;;;;;;;20.27;10.95;;;7.50;99.90;;;;;;7378811;19;20014;-75
2024/01/28 10:04:53;;;;;;;25.20;10.68;;;7.60;99.90;;;;;;7400971;19;20071;-73
2024/01/28 10:07:22;;;;;;;25.85;10.65;;;7.60;99.90;;;;;;7376985;19;20066;-72
2024/01/28 10:09:52;;;;;;;19.88;10.63;;;7.70;99.90;;;;;;7383174;19;20082;-72
2024/01/28 10:12:24;;;;;;;24.75;11.10;;;7.80;99.90;;;;;;7387338;19;20327;-71
2024/01/28 10:14:53;;;;;;;20.48;10.77;;;7.80;99.90;;;;;;7384204;19;20003;-71
2024/01/28 10:17:23;;;;;;;19.30;11.38;;;7.80;99.90;;;;;;7385281;19;20003;-71
2024/01/28 10:19:52;;;;;;;20.73;10.48;;;7.90;99.90;;;;;;7405950;19;20002;-73
2024/01/28 10:22:22;;;;;;;32.22;11.95;;;7.90;99.90;;;;;;7384585;19;20003;-73
2024/01/28 10:24:52;;;;;;;21.65;10.35;;;8.00;99.90;;;;;;7384398;19;20062;-73
2024/01/28 10:27:26;;;;;;;24.42;10.15;;;8.00;99.90;;;;;;7383790;19;20069;-72
2024/01/28 10:29:54;;;;;;;26.00;10.60;;;8.00;99.90;;;;;;7384370;19;20032;-73
2024/01/28 10:32:24;;;;;;;19.77;10.15;;;8.00;99.90;;;;;;7383653;19;20017;-72
2024/01/28 10:34:52;;;;;;;24.73;11.00;;;8.10;99.90;;;;;;7408869;19;20021;-71
2024/01/28 10:37:24;;;;;;;23.80;10.45;;;8.10;99.90;;;;;;7383035;19;20133;-72
2024/01/28 10:39:53;;;;;;;;;;;8.10;99.90;;;;;;7387952;19;20070;-72
2024/01/28 10:42:31;;;;;;;23.52;10.50;;;8.20;99.90;;;;;;7386360;19;19919;-72
2024/01/28 10:45:00;;;;;;;26.92;10.57;;;8.20;99.90;;;;;;7385730;19;20020;-72
2024/01/28 10:47:33;;;;;;;24.42;10.43;;;8.20;99.90;;;;;;7386895;19;21677;-70
2024/01/28 10:50:04;;;;;;;28.85;10.57;;;8.20;99.90;;;;;;7407725;19;20055;-71
2024/01/28 10:52:35;;;;;;;21.38;10.32;;;8.20;99.90;;;;;;7383835;19;20035;-71
2024/01/28 10:55:04;;;;;;;23.93;10.83;;;8.30;99.90;;;;;;7382593;19;20370;-72
2024/01/28 10:57:38;;;;;;;21.23;10.75;;;8.30;99.90;;;;;;7384142;19;20106;-72
2024/01/28 11:00:10;;;;;;;33.40;12.23;;;8.30;99.90;;;;;;7383904;19;20023;-72
2024/01/28 11:02:40;;;;;;;23.52;10.40;;;8.30;99.90;;;;;;7383164;19;20007;-72
2024/01/28 11:05:10;;;;;;;23.38;11.75;;;8.40;99.90;;;;;;7404331;19;20430;-73
2024/01/28 11:07:39;;;;;;;27.13;11.40;;;8.40;99.90;;;;;;7384407;19;20023;-71
2024/01/28 11:10:09;;;;;;;24.85;11.45;;;8.40;99.90;;;;;;7380844;19;20023;-71
2024/01/28 11:12:41;;;;;;;25.33;11.10;;;8.40;99.90;;;;;;7382119;19;20074;-71
2024/01/28 11:15:15;;;;;;;25.33;11.48;;;8.40;99.90;;;;;;7383564;19;20007;-71
2024/01/28 11:17:44;;;;;;;24.70;12.02;;;8.50;99.90;;;;;;7382772;19;20002;-71
2024/01/28 11:20:17;;;;;;;25.52;11.05;;;8.50;99.90;;;;;;7380761;19;20059;-72
2024/01/28 11:22:50;;;;;;;25.38;11.10;;;8.60;99.90;;;;;;7402832;19;20031;-74
2024/01/28 11:25:21;;;;;;;23.30;11.57;;;8.60;99.90;;;;;;7380616;19;20059;-75
2024/01/28 11:27:54;;;;;;;22.80;10.27;;;8.60;99.90;;;;;;7382000;19;20010;-74
2024/01/28 11:30:25;;;;;;;19.58;9.32;;;8.60;99.90;;;;;;7384137;19;20003;-72
2024/01/28 11:32:54;;;;;;;35.63;11.67;;;8.70;99.90;;;;;;7382313;19;20019;-71
2024/01/28 11:35:24;;;;;;;27.90;11.57;;;8.70;99.90;;;;;;7379052;19;20318;-72
2024/01/28 11:37:56;;;;;;;27.88;12.32;;;8.80;99.90;;;;;;7401683;19;20303;-72
2024/01/28 11:40:28;;;;;;;20.23;10.80;;;8.80;99.90;;;;;;7380183;19;20007;-71
2024/01/28 11:42:59;;;;;;;24.02;10.15;;;8.80;99.90;;;;;;7384348;19;20283;-73
2024/01/28 11:45:29;;;;;;;;;;;8.90;99.90;;;;;;7380345;19;20033;-72
2024/01/28 11:48:01;;;;;;;24.13;9.48;;;9.00;99.90;;;;;;7382428;19;19919;-72
2024/01/28 11:50:29;;;;;;;;;;;9.00;99.90;;;;;;7384373;19;20006;-73
2024/01/28 11:52:58;;;;;;;17.55;8.48;;;9.00;99.90;;;;;;7405355;19;19919;-73
2024/01/28 11:55:26;;;;;;;20.23;9.93;;;9.00;99.90;;;;;;7382816;19;20511;-73
2024/01/28 11:58:00;;;;;;;16.52;8.85;;;9.10;99.90;;;;;;7380162;19;20102;-72
2024/01/28 12:00:29;;;;;;;22.65;9.18;;;9.00;99.90;;;;;;7382795;19;20327;-73
2024/01/28 12:02:58;;;;;;;18.38;10.27;;;9.10;99.90;;;;;;7383580;19;20018;-72
2024/01/28 12:05:28;;;;;;;24.25;9.63;;;9.10;99.90;;;;;;7383318;19;20081;-72
2024/01/28 12:08:00;;;;;;;26.67;10.45;;;9.20;99.90;;;;;;7405037;19;20070;-73
2024/01/28 12:10:29;;;;;;;21.40;10.18;;;9.20;99.90;;;;;;7384007;19;20003;-73
2024/01/28 12:13:02;;;;;;;18.48;9.35;;;9.20;99.90;;;;;;7381013;19;20086;-73
2024/01/28 12:15:30;;;;;;;20.02;9.70;;;9.30;99.90;;;;;;7380986;19;20288;-74
2024/01/28 12:17:59;;;;;;;18.65;9.75;;;9.30;99.90;;;;;;7380673;19;20048;-73
2024/01/28 12:20:28;;;;;;;20.98;10.73;;;9.30;99.90;;;;;;7381266;19;20536;-73
2024/01/28 12:22:57;;;;;;;22.52;9.70;;;9.40;99.90;;;;;;7414020;19;20011;-72
2024/01/28 12:25:26;;;;;;;25.45;10.63;;;9.50;99.90;;;;;;7393053;19;20055;-72
2024/01/28 12:27:54;;;;;;;20.55;9.88;;;9.50;99.90;;;;;;7391680;19;20017;-72
2024/01/28 12:30:26;;;;;;;26.65;11.02;;;9.60;99.90;;;;;;7389421;19;20006;-72
2024/01/28 12:32:55;;;;;;;21.52;10.38;;;9.60;99.90;;;;;;7390451;19;20027;-71
2024/01/28 12:35:24;;;;;;;18.08;10.10;;;9.70;99.90;;;;;;7390427;19;20014;-72
2024/01/28 12:37:52;;;;;;;20.80;10.32;;;9.70;99.90;;;;;;7405699;19;20606;-72
2024/01/28 12:40:21;;;;;;;21.58;11.07;;;9.80;99.90;;;;;;7382863;19;20022;-72
2024/01/28 12:42:50;;;;;;;30.98;14.73;;;9.80;99.90;;;;;;7380915;19;20261;-71
2024/01/28 12:45:21;;;;;;;35.42;14.65;;;9.90;99.90;;;;;;7381558;19;20011;-72
2024/01/28 12:47:52;;;;;;;22.08;11.65;;;9.90;99.90;;;;;;7381176;19;20002;-72
2024/01/28 12:50:21;;;;;;;26.05;11.60;;;10.00;99.90;;;;;;7391807;19;20010;-73
2024/01/28 12:52:50;;;;;;;22.70;10.52;;;10.10;99.90;;;;;;7400961;19;20011;-72
2024/01/28 12:55:19;;;;;;;22.55;11.23;;;10.10;99.90;;;;;;7379664;19;20019;-73
2024/01/28 12:57:49;;;;;;;19.70;10.98;;;10.20;99.90;;;;;;7379811;19;20020;-72